GOOYGFLL

Guest
Details From GOOY - Dakar Leopold Sedar Senghor Intl
To GFLL - FREETOWN LUNGI
Flight Number -
Tags generated
Created
Modified
Stats Distance 447 nm / 829 km
Max Altitude 35,000 ft / 10,668 m
Waypoints 7
Social Downloads 0
Likes 0
Share VATSIM

Download

Looking for another format? Having issues loading an existing format? Contact us
Advertisement - Login to hide

Notes

Basic altitude profile: - Ascent Rate: 2500ft/min - Ascent Speed: 250kts - Cruise Altitude: 35000ft - Cruise Speed: 420kts - Descent Rate: 1500ft/min - Descent Speed: 250kts Options: - Use NATs: yes - Use PACOTS: yes - Use low airways: yes - Use high airways: yes

Route

GOOY ND UB600 AXIRO GFLL

ID Type Via Altitude Latitude Longitude Leg Dist Tot Dist Heading (true) Name
O GOOY APT - 0 ft / 0 m 14.73971˚ -17.49023˚ - 0 nm - Dakar Leopold Sedar Senghor Intl
ND NDB - 33,500 ft / 10,211 m 13.34538˚ -16.65744˚ 96 nm 96 nm 150° / 150° BANJUL NDB
KOMOR FIX UB600 (AWY-HI) 35,000 ft / 10,668 m 12.43333˚ -15.91500˚ 69 nm 166 nm 141° / 142° -
SESEL FIX UB600 (AWY-HI) 35,000 ft / 10,668 m 11.16667˚ -14.89333˚ 96 nm 263 nm 142° / 142° -
KIRTI FIX UB600 (AWY-HI) 31,800 ft / 9,693 m 10.69979˚ -14.53319˚ 35 nm 298 nm 143° / 143° -
AXIRO FIX UB600 (AWY-HI) 25,000 ft / 7,620 m 10.09985˚ -14.03318˚ 46 nm 345 nm 141° / 141° -
O GFLL APT - 0 ft / 0 m 8.61644˚ -13.19549˚ 101 nm 447 nm 151° / 151° FREETOWN LUNGI

Altitude Profile

Advertisement - Login to hide

Weather


0- 5 10 15 20 25 30 35+ Temperature / ° C

Clouds and Precipitation
Forecast for 2018-05-22 12:00 UTC. Updated 2 hours ago

Ground ~20,000 ft ~40,000 ft Winds

GOOY

Details ICAO GOOY (DKR)
Name Dakar Leopold Sedar Senghor Intl
Region Senegal
Timezone Africa/Dakar (UTC+0.0)
Stats Elevation 85 ft / 26 m (AMSL)
Location 14.739711° -17.490226°
Runways 2
Magnetic Variation 7.298° W

METAR

Not found

TAF

TAF GOOY 220530Z 2206/2312 35014KT CAVOK= TAF GBYD 220530Z 2206/2312 32010KT CAVOK

Decode

Departure Runways

ID Width Length Bearing (true) Bearing (mag) Surface Threshold Offset Overrun Length
03 98 ft / 30 m 4,921 ft / 1,500 m 22.31° 29.61° Asphalt 0 ft / 0 m 98 ft / 30 m
18 148 ft / 45 m 11,511 ft / 3,509 m 172.57° 179.87° Asphalt 525 ft / 160 m 197 ft / 60 m
21 98 ft / 30 m 4,921 ft / 1,500 m 202.31° 209.61° Asphalt 0 ft / 0 m 1,590 ft / 485 m
36 148 ft / 45 m 11,511 ft / 3,509 m 352.57° 359.87° Asphalt 0 ft / 0 m 197 ft / 60 m

GFLL

Details ICAO GFLL (FNA)
Name FREETOWN LUNGI
Region Sierra Leone
Timezone Africa/Freetown (UTC+0.0)
Stats Elevation 84 ft / 26 m (AMSL)
Location 8.616443° -13.195489°
Runways 1
Magnetic Variation 7.061° W

METAR

GFLL 221000Z 33010KT 9999 FEW014 28/22 Q1012

Decode

TAF

TAF TAF GFLL 212200Z 2200/2306 32007KT 9999 FEW013 FEW027CB TEMPO TS TEMPO 2206/2211 30008KT BKN011 TEMPO 2218/2223 27010KT 9999 FEW014 FEW027CB BECMG 2304/2306 31006KT FEW012

Decode

Destination Runways

ID Width Length Bearing (true) Bearing (mag) Surface Threshold Offset Overrun Length
12 150 ft / 46 m 10,507 ft / 3,203 m 107.14° 114.20° Asphalt 0 ft / 0 m 394 ft / 120 m
30 150 ft / 46 m 10,507 ft / 3,203 m 287.14° 294.20° Asphalt 0 ft / 0 m 197 ft / 60 m

Popular Alternatives